PWSweather.com
Personal Weather Stations
Station Observations

YeovilGB

Lat: 50.949, Lon: -2.627

Elevation: 70

Station Type: Vantage Pro

http://www.yeovil-weather.me.uk/

High Low Average
Temperature 69.8°F21.0°C 53.9°F12.2°C 61.7°F16.5°C
Dew Point 59.9°F15.5°C 52.5°F11.4°C 56.0°F13.3°C
Winds 10.4 mph 16.7 kmh Calm Calm 3.0 mph SSW4.8 kmh SSW
Wind Gusts 19.6 mph31.5 kmh -- 6.0 mph9.7 kmh
Humidity 96% 61% 82%
Pressure 29.99 in1015.6 mb 29.91 in1012.9 mb -
Precipitation 0.00 in0.0 mm - -
Hour Temp Dew Point Humidity Winds Wind Gusts Pressure Precip Precip Rate Daily Precip Total
12:00 AM 56.7°F13.7°C 54.7°F12.6°C 93% Calm Calm -- 29.92 in1013.2 mb - 0.00 in0.0 mm 0.00 in0.0 mm
12:10 AM 56.6°F13.7°C 54.6°F12.6°C 93% Calm Calm 1.2 mph1.9 kmh 29.92 in1013.2 mb - 0.00 in0.0 mm 0.00 in0.0 mm
12:20 AM 56.5°F13.6°C 54.5°F12.5°C 93% Calm Calm -- 29.92 in1013.2 mb - 0.00 in0.0 mm 0.00 in0.0 mm
12:30 AM 56.4°F13.6°C 54.4°F12.4°C 93% Calm Calm -- 29.92 in1013.2 mb - 0.00 in0.0 mm 0.00 in0.0 mm
12:40 AM 56.2°F13.4°C 54.2°F12.3°C 93% Calm Calm -- 29.92 in1013.2 mb - 0.00 in0.0 mm 0.00 in0.0 mm
12:50 AM 56.0°F13.3°C 54.3°F12.4°C 94% Calm Calm -- 29.92 in1013.2 mb - 0.00 in0.0 mm 0.00 in0.0 mm
01:00 AM 55.9°F13.3°C 54.2°F12.3°C 94% Calm Calm 2.3 mph3.7 kmh 29.92 in1013.2 mb - 0.00 in0.0 mm 0.00 in0.0 mm
01:10 AM 55.8°F13.2°C 54.1°F12.3°C 94% Calm Calm -- 29.92 in1013.2 mb - 0.00 in0.0 mm 0.00 in0.0 mm
01:20 AM 55.7°F13.2°C 54.0°F12.2°C 94% Calm Calm -- 29.92 in1013.2 mb - 0.00 in0.0 mm 0.00 in0.0 mm
01:30 AM 55.4°F13.0°C 53.7°F12.1°C 94% Calm Calm -- 29.92 in1013.2 mb - 0.00 in0.0 mm 0.00 in0.0 mm
01:40 AM 55.1°F12.8°C 53.1°F11.7°C 93% Calm Calm -- 29.92 in1013.2 mb - 0.00 in0.0 mm 0.00 in0.0 mm
01:50 AM 54.9°F12.7°C 53.2°F11.8°C 94% Calm Calm -- 29.93 in1013.5 mb - 0.00 in0.0 mm 0.00 in0.0 mm
02:00 AM 54.7°F12.6°C 53.0°F11.7°C 94% Calm Calm -- 29.93 in1013.5 mb - 0.00 in0.0 mm 0.00 in0.0 mm
02:10 AM 54.5°F12.5°C 52.8°F11.6°C 94% Calm Calm -- 29.92 in1013.2 mb - 0.00 in0.0 mm 0.00 in0.0 mm
02:20 AM 54.6°F12.6°C 52.9°F11.6°C 94% Calm Calm -- 29.92 in1013.2 mb - 0.00 in0.0 mm 0.00 in0.0 mm
02:30 AM 54.6°F12.6°C 52.9°F11.6°C 94% Calm Calm -- 29.92 in1013.2 mb - 0.00 in0.0 mm 0.00 in0.0 mm
02:40 AM 54.6°F12.6°C 53.2°F11.8°C 95% Calm Calm -- 29.92 in1013.2 mb - 0.00 in0.0 mm 0.00 in0.0 mm
02:50 AM 54.6°F12.6°C 52.9°F11.6°C 94% Calm Calm -- 29.92 in1013.2 mb - 0.00 in0.0 mm 0.00 in0.0 mm
03:00 AM 54.5°F12.5°C 53.1°F11.7°C 95% Calm Calm -- 29.92 in1013.2 mb - 0.00 in0.0 mm 0.00 in0.0 mm
03:10 AM 54.3°F12.4°C 52.9°F11.6°C 95% Calm Calm -- 29.91 in1012.9 mb - 0.00 in0.0 mm 0.00 in0.0 mm
03:20 AM 54.2°F12.3°C 52.8°F11.6°C 95% Calm Calm -- 29.92 in1013.2 mb - 0.00 in0.0 mm 0.00 in0.0 mm
03:30 AM 54.1°F12.3°C 52.7°F11.5°C 95% Calm Calm -- 29.92 in1013.2 mb - 0.00 in0.0 mm 0.00 in0.0 mm
03:40 AM 54.1°F12.3°C 52.7°F11.5°C 95% Calm Calm -- 29.92 in1013.2 mb - 0.00 in0.0 mm 0.00 in0.0 mm
03:50 AM 54.1°F12.3°C 52.7°F11.5°C 95% Calm Calm -- 29.92 in1013.2 mb - 0.00 in0.0 mm 0.00 in0.0 mm
04:00 AM 54.1°F12.3°C 52.7°F11.5°C 95% Calm Calm -- 29.91 in1012.9 mb - 0.00 in0.0 mm 0.00 in0.0 mm
04:10 AM 54.0°F12.2°C 52.6°F11.4°C 95% Calm Calm -- 29.91 in1012.9 mb - 0.00 in0.0 mm 0.00 in0.0 mm
04:20 AM 53.9°F12.2°C 52.5°F11.4°C 95% Calm Calm -- 29.91 in1012.9 mb - 0.00 in0.0 mm 0.00 in0.0 mm
04:30 AM 53.9°F12.2°C 52.5°F11.4°C 95% Calm Calm -- 29.91 in1012.9 mb - 0.00 in0.0 mm 0.00 in0.0 mm
04:40 AM 54.0°F12.2°C 52.9°F11.6°C 96% Calm Calm -- 29.91 in1012.9 mb - 0.00 in0.0 mm 0.00 in0.0 mm
04:50 AM 54.1°F12.3°C 53.0°F11.7°C 96% Calm Calm -- 29.92 in1013.2 mb - 0.00 in0.0 mm 0.00 in0.0 mm
05:00 AM 54.2°F12.3°C 53.1°F11.7°C 96% Calm Calm -- 29.92 in1013.2 mb - 0.00 in0.0 mm 0.00 in0.0 mm
05:10 AM 54.3°F12.4°C 53.2°F11.8°C 96% Calm Calm -- 29.92 in1013.2 mb - 0.00 in0.0 mm 0.00 in0.0 mm
05:20 AM 54.6°F12.6°C 53.5°F11.9°C 96% Calm Calm -- 29.93 in1013.5 mb - 0.00 in0.0 mm 0.00 in0.0 mm
05:30 AM 55.0°F12.8°C 53.9°F12.2°C 96% Calm Calm -- 29.93 in1013.5 mb - 0.00 in0.0 mm 0.00 in0.0 mm
05:40 AM 55.3°F12.9°C 54.2°F12.3°C 96% Calm Calm -- 29.93 in1013.5 mb - 0.00 in0.0 mm 0.00 in0.0 mm
05:50 AM 55.7°F13.2°C 54.6°F12.6°C 96% Calm Calm -- 29.93 in1013.5 mb - 0.00 in0.0 mm 0.00 in0.0 mm
06:00 AM 56.0°F13.3°C 54.9°F12.7°C 96% Calm Calm -- 29.94 in1013.9 mb - 0.00 in0.0 mm 0.00 in0.0 mm
06:10 AM 56.3°F13.5°C 55.2°F12.9°C 96% Calm Calm -- 29.94 in1013.9 mb - 0.00 in0.0 mm 0.00 in0.0 mm
06:20 AM 56.5°F13.6°C 55.4°F13.0°C 96% Calm Calm -- 29.94 in1013.9 mb - 0.00 in0.0 mm 0.00 in0.0 mm
06:30 AM 56.7°F13.7°C 55.6°F13.1°C 96% Calm Calm -- 29.95 in1014.2 mb - 0.00 in0.0 mm 0.00 in0.0 mm
06:40 AM 57.1°F13.9°C 56.0°F13.3°C 96% Calm Calm -- 29.95 in1014.2 mb - 0.00 in0.0 mm 0.00 in0.0 mm
06:50 AM 57.6°F14.2°C 56.5°F13.6°C 96% Calm Calm -- 29.95 in1014.2 mb - 0.00 in0.0 mm 0.00 in0.0 mm
07:00 AM 58.0°F14.4°C 56.9°F13.8°C 96% Calm Calm -- 29.95 in1014.2 mb - 0.00 in0.0 mm 0.00 in0.0 mm
07:10 AM 58.5°F14.7°C 57.4°F14.1°C 96% Calm Calm -- 29.95 in1014.2 mb - 0.00 in0.0 mm 0.00 in0.0 mm
07:20 AM 59.4°F15.2°C 58.0°F14.4°C 95% Calm Calm -- 29.95 in1014.2 mb - 0.00 in0.0 mm 0.00 in0.0 mm
07:30 AM 60.2°F15.7°C 58.5°F14.7°C 94% 1.2 mph S1.9 kmh S 6.9 mph11.1 kmh 29.95 in1014.2 mb - 0.00 in0.0 mm 0.00 in0.0 mm
07:40 AM 60.7°F15.9°C 57.7°F14.3°C 90% Calm Calm 8.1 mph13.0 kmh 29.95 in1014.2 mb - 0.00 in0.0 mm 0.00 in0.0 mm
07:50 AM 61.7°F16.5°C 58.4°F14.7°C 89% 1.2 mph S1.9 kmh S 11.5 mph18.5 kmh 29.95 in1014.2 mb - 0.00 in0.0 mm 0.00 in0.0 mm
08:00 AM 62.8°F17.1°C 58.3°F14.6°C 85% 3.5 mph SSW5.6 kmh SSW 5.8 mph9.3 kmh 29.95 in1014.2 mb - 0.00 in0.0 mm 0.00 in0.0 mm
08:10 AM 64.0°F17.8°C 58.7°F14.8°C 83% 5.8 mph SSW9.3 kmh SSW 11.5 mph18.5 kmh 29.95 in1014.2 mb - 0.00 in0.0 mm 0.00 in0.0 mm
08:20 AM 64.8°F18.2°C 58.2°F14.6°C 79% 6.9 mph S11.1 kmh S 12.7 mph20.4 kmh 29.95 in1014.2 mb - 0.00 in0.0 mm 0.00 in0.0 mm
08:30 AM 65.2°F18.4°C 58.2°F14.6°C 78% 4.6 mph SW7.4 kmh SW 6.9 mph11.1 kmh 29.95 in1014.2 mb - 0.00 in0.0 mm 0.00 in0.0 mm
08:40 AM 65.9°F18.8°C 57.8°F14.3°C 75% 5.8 mph SW9.3 kmh SW 9.2 mph14.8 kmh 29.95 in1014.2 mb - 0.00 in0.0 mm 0.00 in0.0 mm
08:50 AM 66.8°F19.3°C 58.2°F14.6°C 74% 2.3 mph SSW3.7 kmh SSW 5.8 mph9.3 kmh 29.95 in1014.2 mb - 0.00 in0.0 mm 0.00 in0.0 mm
09:00 AM 67.6°F19.8°C 57.8°F14.3°C 71% 4.6 mph S7.4 kmh S 13.8 mph22.2 kmh 29.96 in1014.6 mb - 0.00 in0.0 mm 0.00 in0.0 mm
09:10 AM 67.3°F19.6°C 57.6°F14.2°C 71% 1.2 mph SSW1.9 kmh SSW 11.5 mph18.5 kmh 29.95 in1014.2 mb - 0.00 in0.0 mm 0.00 in0.0 mm
09:20 AM 66.0°F18.9°C 56.0°F13.3°C 70% 5.8 mph SSW9.3 kmh SSW 9.2 mph14.8 kmh 29.96 in1014.6 mb - 0.00 in0.0 mm 0.00 in0.0 mm
09:30 AM 65.1°F18.4°C 56.6°F13.7°C 74% 5.8 mph S9.3 kmh S 12.7 mph20.4 kmh 29.96 in1014.6 mb - 0.00 in0.0 mm 0.00 in0.0 mm
09:40 AM 64.6°F18.1°C 57.6°F14.2°C 78% 8.1 mph S13.0 kmh S 10.4 mph16.7 kmh 29.95 in1014.2 mb - 0.00 in0.0 mm 0.00 in0.0 mm
09:50 AM 65.4°F18.6°C 57.7°F14.3°C 76% 6.9 mph SW11.1 kmh SW 12.7 mph20.4 kmh 29.95 in1014.2 mb - 0.00 in0.0 mm 0.00 in0.0 mm
10:00 AM 67.0°F19.4°C 58.4°F14.7°C 74% 1.2 mph S1.9 kmh S 3.5 mph5.6 kmh 29.95 in1014.2 mb - 0.00 in0.0 mm 0.00 in0.0 mm
10:10 AM 66.3°F19.1°C 56.6°F13.7°C 71% 4.6 mph SSW7.4 kmh SSW 10.4 mph16.7 kmh 29.95 in1014.2 mb - 0.00 in0.0 mm 0.00 in0.0 mm
10:20 AM 65.3°F18.5°C 57.9°F14.4°C 77% 4.6 mph SW7.4 kmh SW 5.8 mph9.3 kmh 29.96 in1014.6 mb - 0.00 in0.0 mm 0.00 in0.0 mm
10:30 AM 64.1°F17.8°C 58.4°F14.7°C 82% 3.5 mph SSW5.6 kmh SSW 10.4 mph16.7 kmh 29.96 in1014.6 mb - 0.00 in0.0 mm 0.00 in0.0 mm
10:40 AM 63.5°F17.5°C 58.2°F14.6°C 83% 3.5 mph SSW5.6 kmh SSW 9.2 mph14.8 kmh 29.96 in1014.6 mb - 0.00 in0.0 mm 0.00 in0.0 mm
10:50 AM 64.0°F17.8°C 58.4°F14.7°C 82% 1.2 mph SSW1.9 kmh SSW 8.1 mph13.0 kmh 29.96 in1014.6 mb - 0.00 in0.0 mm 0.00 in0.0 mm
11:00 AM 64.7°F18.2°C 58.8°F14.9°C 81% 2.3 mph SSW3.7 kmh SSW 10.4 mph16.7 kmh 29.96 in1014.6 mb - 0.00 in0.0 mm 0.00 in0.0 mm
11:10 AM 66.7°F19.3°C 59.9°F15.5°C 79% 5.8 mph SSW9.3 kmh SSW 13.8 mph22.2 kmh 29.96 in1014.6 mb - 0.00 in0.0 mm 0.00 in0.0 mm
11:20 AM 67.7°F19.8°C 59.1°F15.1°C 74% 8.1 mph SSW13.0 kmh SSW 18.4 mph29.6 kmh 29.96 in1014.6 mb - 0.00 in0.0 mm 0.00 in0.0 mm
11:30 AM 68.2°F20.1°C 58.8°F14.9°C 72% 2.3 mph SSW3.7 kmh SSW 9.2 mph14.8 kmh 29.96 in1014.6 mb - 0.00 in0.0 mm 0.00 in0.0 mm
11:40 AM 68.0°F20.0°C 58.2°F14.6°C 71% 4.6 mph SW7.4 kmh SW 10.4 mph16.7 kmh 29.96 in1014.6 mb - 0.00 in0.0 mm 0.00 in0.0 mm
11:50 AM 67.0°F19.4°C 56.9°F13.8°C 70% 5.8 mph SW9.3 kmh SW 9.2 mph14.8 kmh 29.96 in1014.6 mb - 0.00 in0.0 mm 0.00 in0.0 mm
12:00 PM 66.5°F19.2°C 57.6°F14.2°C 73% 5.8 mph SSW9.3 kmh SSW 9.2 mph14.8 kmh 29.96 in1014.6 mb - 0.00 in0.0 mm 0.00 in0.0 mm
12:10 PM 66.5°F19.2°C 58.0°F14.4°C 74% 6.9 mph SW11.1 kmh SW 13.8 mph22.2 kmh 29.95 in1014.2 mb - 0.00 in0.0 mm 0.00 in0.0 mm
12:20 PM 66.5°F19.2°C 57.2°F14.0°C 72% 5.8 mph SW9.3 kmh SW 13.8 mph22.2 kmh 29.96 in1014.6 mb - 0.00 in0.0 mm 0.00 in0.0 mm
12:30 PM 67.2°F19.6°C 59.0°F15.0°C 75% 4.6 mph S7.4 kmh S 10.4 mph16.7 kmh 29.95 in1014.2 mb - 0.00 in0.0 mm 0.00 in0.0 mm
12:40 PM 68.2°F20.1°C 58.1°F14.5°C 70% 4.6 mph SSW7.4 kmh SSW 11.5 mph18.5 kmh 29.95 in1014.2 mb - 0.00 in0.0 mm 0.00 in0.0 mm
12:50 PM 68.9°F20.5°C 57.5°F14.2°C 67% 6.9 mph SSW11.1 kmh SSW 9.2 mph14.8 kmh 29.95 in1014.2 mb - 0.00 in0.0 mm 0.00 in0.0 mm
01:00 PM 69.5°F20.8°C 57.6°F14.2°C 66% 4.6 mph S7.4 kmh S 10.4 mph16.7 kmh 29.95 in1014.2 mb - 0.00 in0.0 mm 0.00 in0.0 mm
01:10 PM 69.6°F20.9°C 56.9°F13.8°C 64% 9.2 mph S14.8 kmh S 13.8 mph22.2 kmh 29.95 in1014.2 mb - 0.00 in0.0 mm 0.00 in0.0 mm
01:20 PM 69.8°F21.0°C 57.5°F14.2°C 65% 8.1 mph SSW13.0 kmh SSW 13.8 mph22.2 kmh 29.95 in1014.2 mb - 0.00 in0.0 mm 0.00 in0.0 mm
01:30 PM 69.8°F21.0°C 57.5°F14.2°C 65% 9.2 mph SSW14.8 kmh SSW 15.0 mph24.1 kmh 29.95 in1014.2 mb - 0.00 in0.0 mm 0.00 in0.0 mm
01:40 PM 69.8°F21.0°C 56.2°F13.4°C 62% 9.2 mph S14.8 kmh S 12.7 mph20.4 kmh 29.95 in1014.2 mb - 0.00 in0.0 mm 0.00 in0.0 mm
01:50 PM 69.3°F20.7°C 56.2°F13.4°C 63% 10.4 mph S16.7 kmh S 15.0 mph24.1 kmh 29.95 in1014.2 mb - 0.00 in0.0 mm 0.00 in0.0 mm
02:00 PM 69.0°F20.6°C 55.4°F13.0°C 62% 10.4 mph S16.7 kmh S 18.4 mph29.6 kmh 29.95 in1014.2 mb - 0.00 in0.0 mm 0.00 in0.0 mm
02:10 PM 69.1°F20.6°C 55.1°F12.8°C 61% 5.8 mph SSW9.3 kmh SSW 11.5 mph18.5 kmh 29.95 in1014.2 mb - 0.00 in0.0 mm 0.00 in0.0 mm
02:20 PM 68.7°F20.4°C 56.0°F13.3°C 64% 6.9 mph S11.1 kmh S 13.8 mph22.2 kmh 29.95 in1014.2 mb - 0.00 in0.0 mm 0.00 in0.0 mm
02:30 PM 68.6°F20.3°C 56.8°F13.8°C 66% 5.8 mph S9.3 kmh S 13.8 mph22.2 kmh 29.95 in1014.2 mb - 0.00 in0.0 mm 0.00 in0.0 mm
02:40 PM 68.6°F20.3°C 55.9°F13.3°C 64% 4.6 mph SW7.4 kmh SW 12.7 mph20.4 kmh 29.95 in1014.2 mb - 0.00 in0.0 mm 0.00 in0.0 mm
02:50 PM 68.6°F20.3°C 56.4°F13.6°C 65% 9.2 mph SSW14.8 kmh SSW 15.0 mph24.1 kmh 29.95 in1014.2 mb - 0.00 in0.0 mm 0.00 in0.0 mm
03:00 PM 68.6°F20.3°C 56.3°F13.5°C 65% 4.6 mph S7.4 kmh S 15.0 mph24.1 kmh 29.95 in1014.2 mb - 0.00 in0.0 mm 0.00 in0.0 mm
03:10 PM 68.4°F20.2°C 55.7°F13.2°C 64% 10.4 mph S16.7 kmh S 12.7 mph20.4 kmh 29.95 in1014.2 mb - 0.00 in0.0 mm 0.00 in0.0 mm
03:20 PM 67.5°F19.7°C 56.2°F13.4°C 67% 3.5 mph SW5.6 kmh SW 8.1 mph13.0 kmh 29.95 in1014.2 mb - 0.00 in0.0 mm 0.00 in0.0 mm
03:30 PM 67.9°F19.9°C 55.3°F12.9°C 64% 8.1 mph SSW13.0 kmh SSW 19.6 mph31.5 kmh 29.96 in1014.6 mb - 0.00 in0.0 mm 0.00 in0.0 mm
03:40 PM 67.5°F19.7°C 55.7°F13.2°C 66% 8.1 mph SW13.0 kmh SW 16.1 mph25.9 kmh 29.96 in1014.6 mb - 0.00 in0.0 mm 0.00 in0.0 mm
03:50 PM 66.8°F19.3°C 55.9°F13.3°C 68% 6.9 mph SSW11.1 kmh SSW 11.5 mph18.5 kmh 29.96 in1014.6 mb - 0.00 in0.0 mm 0.00 in0.0 mm
04:00 PM 66.3°F19.1°C 56.2°F13.4°C 70% 6.9 mph SSW11.1 kmh SSW 18.4 mph29.6 kmh 29.96 in1014.6 mb - 0.00 in0.0 mm 0.00 in0.0 mm
04:10 PM 66.0°F18.9°C 56.7°F13.7°C 72% 6.9 mph SSW11.1 kmh SSW 11.5 mph18.5 kmh 29.96 in1014.6 mb - 0.00 in0.0 mm 0.00 in0.0 mm
04:20 PM 65.9°F18.8°C 57.0°F13.9°C 73% 3.5 mph SSW5.6 kmh SSW 5.8 mph9.3 kmh 29.96 in1014.6 mb - 0.00 in0.0 mm 0.00 in0.0 mm
04:30 PM 65.7°F18.7°C 56.8°F13.8°C 73% 4.6 mph S7.4 kmh S 11.5 mph18.5 kmh 29.96 in1014.6 mb - 0.00 in0.0 mm 0.00 in0.0 mm
04:40 PM 65.5°F18.6°C 57.0°F13.9°C 74% Calm Calm 3.5 mph5.6 kmh 29.96 in1014.6 mb - 0.00 in0.0 mm 0.00 in0.0 mm
04:50 PM 65.2°F18.4°C 56.7°F13.7°C 74% 5.8 mph SW9.3 kmh SW 10.4 mph16.7 kmh 29.96 in1014.6 mb - 0.00 in0.0 mm 0.00 in0.0 mm
05:00 PM 64.9°F18.3°C 56.4°F13.6°C 74% 1.2 mph SW1.9 kmh SW 6.9 mph11.1 kmh 29.96 in1014.6 mb - 0.00 in0.0 mm 0.00 in0.0 mm
05:10 PM 64.7°F18.2°C 55.8°F13.2°C 73% Calm Calm -- 29.96 in1014.6 mb - 0.00 in0.0 mm 0.00 in0.0 mm
05:20 PM 64.8°F18.2°C 56.7°F13.7°C 75% Calm Calm 2.3 mph3.7 kmh 29.96 in1014.6 mb - 0.00 in0.0 mm 0.00 in0.0 mm
05:30 PM 64.9°F18.3°C 57.2°F14.0°C 76% 6.9 mph SSW11.1 kmh SSW 12.7 mph20.4 kmh 29.96 in1014.6 mb - 0.00 in0.0 mm 0.00 in0.0 mm
05:40 PM 64.8°F18.2°C 57.4°F14.1°C 77% 5.8 mph SSW9.3 kmh SSW 10.4 mph16.7 kmh 29.96 in1014.6 mb - 0.00 in0.0 mm 0.00 in0.0 mm
05:50 PM 64.6°F18.1°C 57.3°F14.1°C 77% 3.5 mph SSW5.6 kmh SSW 9.2 mph14.8 kmh 29.96 in1014.6 mb - 0.00 in0.0 mm 0.00 in0.0 mm
06:00 PM 64.5°F18.1°C 57.1°F13.9°C 77% 2.3 mph SW3.7 kmh SW 8.1 mph13.0 kmh 29.97 in1014.9 mb - 0.00 in0.0 mm 0.00 in0.0 mm
06:10 PM 64.3°F17.9°C 57.3°F14.1°C 78% 1.2 mph SSW1.9 kmh SSW 6.9 mph11.1 kmh 29.97 in1014.9 mb - 0.00 in0.0 mm 0.00 in0.0 mm
06:30 PM 64.0°F17.8°C 57.0°F13.9°C 78% 2.3 mph SW3.7 kmh SW 8.1 mph13.0 kmh 29.97 in1014.9 mb - 0.00 in0.0 mm 0.00 in0.0 mm
06:40 PM 63.8°F17.7°C 57.1°F13.9°C 79% 2.3 mph SW3.7 kmh SW 9.2 mph14.8 kmh 29.98 in1015.2 mb - 0.00 in0.0 mm 0.00 in0.0 mm
06:50 PM 63.6°F17.6°C 56.9°F13.8°C 79% 3.5 mph SSW5.6 kmh SSW 8.1 mph13.0 kmh 29.98 in1015.2 mb - 0.00 in0.0 mm 0.00 in0.0 mm
07:00 PM 63.4°F17.4°C 56.7°F13.7°C 79% Calm Calm -- 29.98 in1015.2 mb - 0.00 in0.0 mm 0.00 in0.0 mm
07:10 PM 63.0°F17.2°C 56.4°F13.6°C 79% 4.6 mph SSW7.4 kmh SSW 8.1 mph13.0 kmh 29.98 in1015.2 mb - 0.00 in0.0 mm 0.00 in0.0 mm
07:20 PM 62.7°F17.1°C 56.1°F13.4°C 79% 3.5 mph SSW5.6 kmh SSW 9.2 mph14.8 kmh 29.98 in1015.2 mb - 0.00 in0.0 mm 0.00 in0.0 mm
07:30 PM 62.5°F16.9°C 55.9°F13.3°C 79% 1.2 mph SSW1.9 kmh SSW 8.1 mph13.0 kmh 29.98 in1015.2 mb - 0.00 in0.0 mm 0.00 in0.0 mm
07:40 PM 62.2°F16.8°C 56.0°F13.3°C 80% 1.2 mph SSW1.9 kmh SSW 8.1 mph13.0 kmh 29.98 in1015.2 mb - 0.00 in0.0 mm 0.00 in0.0 mm
07:50 PM 61.9°F16.6°C 55.3°F12.9°C 79% 1.2 mph SSW1.9 kmh SSW 5.8 mph9.3 kmh 29.98 in1015.2 mb - 0.00 in0.0 mm 0.00 in0.0 mm
08:00 PM 61.6°F16.4°C 55.0°F12.8°C 79% 1.2 mph S1.9 kmh S 5.8 mph9.3 kmh 29.98 in1015.2 mb - 0.00 in0.0 mm 0.00 in0.0 mm
08:10 PM 61.4°F16.3°C 55.2°F12.9°C 80% Calm Calm 6.9 mph11.1 kmh 29.98 in1015.2 mb - 0.00 in0.0 mm 0.00 in0.0 mm
08:30 PM 61.0°F16.1°C 55.5°F13.1°C 82% Calm Calm -- 29.98 in1015.2 mb - 0.00 in0.0 mm 0.00 in0.0 mm
08:40 PM 60.8°F16.0°C 55.9°F13.3°C 84% 1.2 mph S1.9 kmh S 3.5 mph5.6 kmh 29.98 in1015.2 mb - 0.00 in0.0 mm 0.00 in0.0 mm
08:50 PM 60.5°F15.8°C 55.6°F13.1°C 84% Calm Calm 9.2 mph14.8 kmh 29.99 in1015.6 mb - 0.00 in0.0 mm 0.00 in0.0 mm
09:00 PM 60.4°F15.8°C 55.9°F13.3°C 85% 2.3 mph SSW3.7 kmh SSW 9.2 mph14.8 kmh 29.98 in1015.2 mb - 0.00 in0.0 mm 0.00 in0.0 mm
09:10 PM 60.4°F15.8°C 56.2°F13.4°C 86% Calm Calm -- 29.98 in1015.2 mb - 0.00 in0.0 mm 0.00 in0.0 mm
09:20 PM 60.2°F15.7°C 56.0°F13.3°C 86% Calm Calm -- 29.99 in1015.6 mb - 0.00 in0.0 mm 0.00 in0.0 mm
09:30 PM 60.1°F15.6°C 55.9°F13.3°C 86% Calm Calm 1.2 mph1.9 kmh 29.99 in1015.6 mb - 0.00 in0.0 mm 0.00 in0.0 mm
09:40 PM 60.0°F15.6°C 55.8°F13.2°C 86% Calm Calm -- 29.99 in1015.6 mb - 0.00 in0.0 mm 0.00 in0.0 mm
09:50 PM 59.8°F15.4°C 55.6°F13.1°C 86% Calm Calm 1.2 mph1.9 kmh 29.99 in1015.6 mb - 0.00 in0.0 mm 0.00 in0.0 mm
10:00 PM 59.8°F15.4°C 55.9°F13.3°C 87% Calm Calm -- 29.99 in1015.6 mb - 0.00 in0.0 mm 0.00 in0.0 mm
10:10 PM 59.6°F15.3°C 55.7°F13.2°C 87% Calm Calm -- 29.99 in1015.6 mb - 0.00 in0.0 mm 0.00 in0.0 mm
10:20 PM 59.5°F15.3°C 56.0°F13.3°C 88% Calm Calm 1.2 mph1.9 kmh 29.99 in1015.6 mb - 0.00 in0.0 mm 0.00 in0.0 mm
10:30 PM 59.5°F15.3°C 56.3°F13.5°C 89% Calm Calm -- 29.98 in1015.2 mb - 0.00 in0.0 mm 0.00 in0.0 mm
10:40 PM 59.4°F15.2°C 56.2°F13.4°C 89% Calm Calm -- 29.98 in1015.2 mb - 0.00 in0.0 mm 0.00 in0.0 mm
10:50 PM 59.3°F15.2°C 56.1°F13.4°C 89% Calm Calm -- 29.98 in1015.2 mb - 0.00 in0.0 mm 0.00 in0.0 mm
11:00 PM 59.3°F15.2°C 56.4°F13.6°C 90% 2.3 mph S3.7 kmh S 5.8 mph9.3 kmh 29.98 in1015.2 mb - 0.00 in0.0 mm 0.00 in0.0 mm
11:10 PM 59.5°F15.3°C 56.9°F13.8°C 91% 2.3 mph SSW3.7 kmh SSW 5.8 mph9.3 kmh 29.98 in1015.2 mb - 0.00 in0.0 mm 0.00 in0.0 mm
11:20 PM 59.6°F15.3°C 57.0°F13.9°C 91% 3.5 mph S5.6 kmh S 8.1 mph13.0 kmh 29.97 in1014.9 mb - 0.00 in0.0 mm 0.00 in0.0 mm
11:30 PM 59.7°F15.4°C 56.8°F13.8°C 90% 2.3 mph SSW3.7 kmh SSW 9.2 mph14.8 kmh 29.97 in1014.9 mb - 0.00 in0.0 mm 0.00 in0.0 mm
11:40 PM 59.9°F15.5°C 57.0°F13.9°C 90% 2.3 mph S3.7 kmh S 4.6 mph7.4 kmh 29.97 in1014.9 mb - 0.00 in0.0 mm 0.00 in0.0 mm
11:50 PM 60.0°F15.6°C 56.7°F13.7°C 89% 2.3 mph S3.7 kmh S 9.2 mph14.8 kmh 29.97 in1014.9 mb - 0.00 in0.0 mm 0.00 in0.0 mm